Time;durP1;ratioP1;P1;durP2;ratioP2;P2;SDS_P1;SDS_P2;PMS_P1;PMS_P2;Temp;Humidity;BMP_temperature;BMP_pressure;BME280_temperature;BME280_humidity;BME280_pressure;Samples;Min_cycle;Max_cycle;Signal;HPM_P1;HPM_P2
2023/02/05 00:00:54;;;;;;;6.30;4.03;;;10.60;99.90;;;10.68;62.34;103288.47;5991037;23;120639;-59
2023/02/05 00:03:20;;;;;;;7.30;3.67;;;10.50;99.90;;;10.66;62.31;103277.91;5992950;23;97754;-58
2023/02/05 00:05:45;;;;;;;14.63;3.33;;;10.50;99.90;;;10.67;62.66;103268.25;5966605;23;97564;-56
2023/02/05 00:08:11;;;;;;;7.47;3.90;;;10.50;99.90;;;10.67;62.66;103270.88;6000029;23;97030;-59
2023/02/05 00:10:37;;;;;;;7.43;2.93;;;10.50;99.90;;;10.64;63.39;103266.47;6003564;23;97734;-58
2023/02/05 00:13:03;;;;;;;9.87;4.30;;;10.50;99.90;;;10.61;63.55;103255.03;6003808;23;98572;-55
2023/02/05 00:15:29;;;;;;;8.10;3.77;;;10.50;99.90;;;10.58;63.68;103255.00;6000447;23;98124;-59
2023/02/05 00:17:54;;;;;;;8.10;3.70;;;10.40;99.90;;;10.57;63.95;103258.53;5992183;23;105399;-58
2023/02/05 00:20:20;;;;;;;6.47;2.90;;;10.40;99.90;;;10.56;63.69;103251.44;5965651;23;111572;-58
2023/02/05 00:22:46;;;;;;;13.97;4.03;;;10.40;99.90;;;10.55;63.70;103244.41;5989450;23;97947;-57
2023/02/05 00:25:11;;;;;;;14.30;4.47;;;10.40;99.90;;;10.53;64.00;103246.16;5992740;23;117459;-56
2023/02/05 00:27:37;;;;;;;5.77;3.03;;;10.40;99.90;;;10.52;64.38;103233.84;5991227;23;109770;-58
2023/02/05 00:30:04;;;;;;;10.50;4.63;;;10.40;99.90;;;10.52;63.99;103240.00;5990624;23;123281;-57
2023/02/05 00:32:29;;;;;;;9.97;3.93;;;10.40;99.90;;;10.50;64.38;103232.97;5996967;23;98224;-54
2023/02/05 00:34:55;;;;;;;6.43;3.93;;;10.40;99.90;;;10.48;64.30;103226.78;5992629;23;114454;-53
2023/02/05 00:37:21;;;;;;;5.10;3.40;;;10.30;99.90;;;10.47;64.47;103225.03;5988841;23;118465;-59
2023/02/05 00:39:46;;;;;;;6.77;3.93;;;10.30;99.90;;;10.46;64.82;103223.28;5993896;23;97270;-57
2023/02/05 00:42:12;;;;;;;9.57;3.80;;;10.30;99.90;;;10.46;64.88;103226.78;5991782;23;97125;-52
2023/02/05 00:44:38;;;;;;;8.83;4.10;;;10.30;99.90;;;10.48;64.60;103237.34;6001026;23;98289;-56
2023/02/05 00:47:04;;;;;;;7.63;3.27;;;10.30;99.90;;;10.53;64.60;103225.94;6019246;23;97485;-52
2023/02/05 00:49:29;;;;;;;7.13;3.90;;;10.40;99.90;;;10.58;64.42;103218.06;6023502;23;118466;-55
2023/02/05 00:51:55;;;;;;;8.37;3.87;;;10.40;99.90;;;10.56;64.48;103214.50;6022261;23;117650;-58
2023/02/05 00:54:21;;;;;;;8.33;3.90;;;10.40;99.90;;;10.55;64.55;103203.06;6018507;23;115719;-53
2023/02/05 00:56:47;;;;;;;9.00;4.33;;;10.40;99.90;;;10.53;64.82;103210.09;6020888;23;125012;-56
2023/02/05 00:59:12;;;;;;;7.10;3.50;;;10.40;99.90;;;10.52;64.63;103207.44;6020380;23;97946;-58
2023/02/05 01:01:38;;;;;;;6.87;4.00;;;10.40;99.90;;;10.52;64.70;103202.16;6016888;23;98907;-58
2023/02/05 01:04:04;;;;;;;6.17;3.50;;;10.30;99.90;;;10.54;64.76;103189.88;6016306;23;97312;-58
2023/02/05 01:06:30;;;;;;;7.93;3.47;;;10.40;99.90;;;10.56;64.57;103190.75;6019043;23;98157;-56
2023/02/05 01:08:55;;;;;;;7.37;4.13;;;10.40;99.90;;;10.54;64.21;103192.50;6015836;23;110090;-57
2023/02/05 01:11:21;;;;;;;9.90;4.00;;;10.40;99.90;;;10.53;64.88;103188.09;6018705;23;97184;-59
2023/02/05 01:13:47;;;;;;;6.87;3.80;;;10.40;99.90;;;10.50;64.66;103190.72;6018237;23;113265;-57
2023/02/05 01:16:12;;;;;;;7.37;4.03;;;10.40;99.90;;;10.46;64.66;103195.13;6014511;23;118769;-58
2023/02/05 01:18:39;;;;;;;12.33;4.57;;;10.30;99.90;;;10.39;64.60;103196.81;5990940;23;130229;-59
2023/02/05 01:21:05;;;;;;;10.73;4.40;;;10.20;99.90;;;10.36;65.45;103195.94;6015933;23;109729;-55
2023/02/05 01:23:31;;;;;;;16.10;4.40;;;10.20;99.90;;;10.34;65.65;103188.00;6020220;23;97960;-55
2023/02/05 01:25:56;;;;;;;9.90;4.20;;;10.20;99.90;;;10.32;65.76;103188.88;6016425;23;116458;-58
2023/02/05 01:28:22;;;;;;;9.23;4.27;;;10.20;99.90;;;10.32;65.49;103195.03;5971087;23;1207398;-57
2023/02/05 01:30:49;;;;;;;13.53;5.07;;;10.20;99.90;;;10.32;65.28;103178.34;6021966;23;101891;-56
2023/02/05 01:33:16;;;;;;;12.80;4.33;;;10.20;99.90;;;10.31;65.17;103176.56;6018604;23;97375;-52
2023/02/05 01:35:43;;;;;;;8.87;4.70;;;10.20;99.90;;;10.29;65.62;103168.66;6021849;23;97821;-56
2023/02/05 01:38:13;;;;;;;7.53;3.77;;;10.20;99.90;;;10.29;66.22;103166.00;6018185;23;97468;-59
2023/02/05 01:40:39;;;;;;;7.60;3.93;;;10.20;99.90;;;10.31;66.47;103161.63;6019525;23;97511;-55
2023/02/05 01:43:13;;;;;;;8.27;4.30;;;10.20;99.90;;;10.31;66.12;103161.63;6016166;23;97614;-57
2023/02/05 01:46:18;;;;;;;12.67;4.73;;;10.20;99.90;;;10.31;65.54;103173.94;6022240;23;97980;-58
2023/02/05 01:48:50;;;;;;;12.40;5.17;;;10.20;99.90;;;10.26;65.69;103184.44;6017010;23;103888;-54
2023/02/05 01:51:16;;;;;;;11.00;4.87;;;10.10;99.90;;;10.25;65.60;103165.97;5993470;23;98930;-53
2023/02/05 01:53:44;;;;;;;13.17;4.20;;;10.10;99.90;;;10.22;66.19;103156.28;5993570;23;97842;-59
2023/02/05 01:56:21;;;;;;;10.17;3.73;;;10.10;99.90;;;10.21;65.29;103149.25;6017349;23;98014;-52
2023/02/05 01:58:57;;;;;;;6.33;3.70;;;10.10;99.90;;;10.24;65.85;103165.09;6019813;23;97423;-56
2023/02/05 02:01:24;;;;;;;9.53;3.77;;;10.10;99.90;;;10.25;65.99;103161.56;5992700;23;97423;-56
2023/02/05 02:03:52;;;;;;;7.87;4.13;;;10.10;99.90;;;10.27;65.71;103149.28;6020015;23;97584;-59
2023/02/05 02:06:18;;;;;;;9.00;4.00;;;10.20;99.90;;;10.39;65.39;103137.91;6007656;23;98149;-57
2023/02/05 02:08:44;;;;;;;5.07;3.10;;;10.20;99.90;;;10.54;64.27;103126.50;6010783;23;118494;-59
2023/02/05 02:11:15;;;;;;;6.40;3.37;;;10.30;99.90;;;10.73;63.47;103117.81;6016210;23;97321;-55
2023/02/05 02:13:44;;;;;;;12.87;4.17;;;10.50;99.90;;;10.91;63.03;103111.66;6017371;23;97955;-55
2023/02/05 02:16:10;;;;;;;9.03;4.23;;;10.60;99.90;;;11.13;62.07;103107.28;6014891;23;98003;-50
2023/02/05 02:18:38;;;;;;;6.63;3.73;;;10.80;99.90;;;11.39;61.17;103116.09;6020159;23;112470;-56
2023/02/05 02:21:23;;;;;;;3.87;2.40;;;11.00;99.90;;;11.72;59.98;103114.34;6020952;23;97203;-53
2023/02/05 02:24:31;;;;;;;6.57;3.87;;;11.50;99.90;;;11.71;59.64;103123.13;6025441;23;97403;-57
2023/02/05 02:27:36;;;;;;;9.70;4.50;;;11.40;99.90;;;11.53;60.35;103134.59;6007149;23;100987;-53
2023/02/05 02:30:08;;;;;;;14.17;5.00;;;11.20;99.90;;;11.35;60.77;103151.34;6021490;23;97494;-53
2023/02/05 02:32:49;;;;;;;7.37;3.90;;;11.00;99.90;;;11.20;60.81;103167.19;6027387;23;98573;-52
2023/02/05 02:35:30;;;;;;;6.03;3.47;;;11.00;99.90;;;11.03;62.10;103170.69;6033779;23;97455;-53
2023/02/05 02:38:07;;;;;;;6.80;3.47;;;10.80;99.90;;;10.89;62.18;103171.53;6026203;23;98950;-59
2023/02/05 02:40:49;;;;;;;7.30;4.43;;;10.70;99.90;;;10.76;63.15;103165.31;6023067;23;102270;-52
2023/02/05 02:43:24;;;;;;;7.27;3.73;;;10.60;99.90;;;10.66;64.22;103182.00;6022349;23;98550;-58
2023/02/05 02:45:59;;;;;;;10.77;4.57;;;10.40;99.90;;;10.61;64.25;103191.66;6021733;23;97311;-59
2023/02/05 02:48:27;;;;;;;8.37;4.27;;;10.40;99.90;;;10.59;64.03;103182.88;6015895;23;101827;-55
2023/02/05 02:50:55;;;;;;;7.47;4.07;;;10.40;99.90;;;10.58;64.33;103181.09;6018992;23;97552;-59
2023/02/05 02:53:29;;;;;;;8.30;4.43;;;10.40;99.90;;;10.57;64.31;103179.34;6015917;23;97612;-59
2023/02/05 02:55:57;;;;;;;8.60;3.73;;;10.40;99.90;;;10.55;64.41;103181.06;5996585;23;97573;-53
2023/02/05 02:58:30;;;;;;;8.10;4.17;;;10.40;99.90;;;10.51;64.61;103179.28;5992130;23;122345;-59
2023/02/05 03:00:57;;;;;;;12.10;5.07;;;10.40;99.90;;;10.47;64.71;103167.84;6019446;23;97312;-51
2023/02/05 03:03:25;;;;;;;11.90;4.00;;;10.30;99.90;;;10.39;64.41;103164.28;5992462;23;103398;-58
2023/02/05 03:05:55;;;;;;;7.63;4.10;;;10.30;99.90;;;10.36;65.48;103161.63;6020476;23;105708;-55
2023/02/05 03:08:37;;;;;;;6.50;3.60;;;10.20;99.90;;;10.29;65.22;103163.38;6013876;23;105830;-56
2023/02/05 03:11:11;;;;;;;8.60;3.97;;;10.20;99.90;;;10.24;65.66;103165.09;6019055;23;97344;-58
2023/02/05 03:13:37;;;;;;;6.23;3.17;;;10.10;99.90;;;10.22;66.71;103156.28;6019519;23;97257;-58
2023/02/05 03:16:04;;;;;;;15.33;4.23;;;10.10;99.90;;;10.24;66.55;103162.44;6017114;23;98009;-57
2023/02/05 03:18:30;;;;;;;9.10;4.17;;;10.10;99.90;;;10.24;65.76;103149.25;6020838;23;117210;-58
2023/02/05 03:21:01;;;;;;;7.63;4.30;;;10.10;99.90;;;10.26;66.29;103139.59;6021296;23;97212;-58
2023/02/05 03:23:28;;;;;;;7.57;4.33;;;10.10;99.90;;;10.25;65.83;103140.47;6018081;23;97063;-57
2023/02/05 03:25:54;;;;;;;10.50;4.13;;;10.10;99.90;;;10.24;65.87;103138.69;6022251;23;97516;-58
2023/02/05 03:28:20;;;;;;;6.47;3.67;;;10.10;99.90;;;10.23;66.50;103136.06;6017710;23;102551;-59
2023/02/05 03:31:04;;;;;;;6.67;3.40;;;10.10;99.90;;;10.23;66.39;103131.66;6019598;23;113541;-57
2023/02/05 03:34:23;;;;;;;9.83;4.57;;;10.10;99.90;;;10.24;66.62;103132.53;6019618;23;97101;-50
2023/02/05 03:37:25;;;;;;;10.10;3.67;;;10.10;99.90;;;10.19;66.76;103124.59;6013856;23;97165;-53
2023/02/05 03:40:19;;;;;;;12.50;3.50;;;10.10;99.90;;;10.20;67.25;103131.63;6017741;23;102790;-58
2023/02/05 03:43:16;;;;;;;8.27;3.67;;;10.10;99.90;;;10.18;66.61;103122.81;5991214;23;100764;-57
2023/02/05 03:45:52;;;;;;;12.50;4.03;;;10.00;99.90;;;10.20;67.17;103121.06;5994233;23;97158;-59
2023/02/05 03:48:34;;;;;;;8.67;3.87;;;10.00;99.90;;;10.20;67.25;103114.91;6016698;23;97750;-56
2023/02/05 03:51:32;;;;;;;11.37;4.67;;;10.10;99.90;;;10.19;66.78;103111.41;6015765;23;98035;-59
2023/02/05 03:54:33;;;;;;;7.83;4.60;;;10.10;99.90;;;10.16;66.90;103108.75;6015044;23;97568;-58
2023/02/05 03:57:26;;;;;;;9.47;4.30;;;10.00;99.90;;;10.18;67.19;103100.84;6016827;23;97216;-58
2023/02/05 03:59:54;;;;;;;11.20;4.17;;;10.00;99.90;;;10.21;67.32;103100.84;6019920;23;97463;-55
2023/02/05 04:02:21;;;;;;;17.43;5.10;;;10.10;99.90;;;10.25;67.07;103102.66;6012858;23;126403;-58
2023/02/05 04:04:47;;;;;;;15.67;5.53;;;10.10;99.90;;;10.27;66.97;103111.44;6020310;23;126560;-56
2023/02/05 04:07:13;;;;;;;8.47;4.13;;;10.10;99.90;;;10.29;67.17;103113.25;6019406;23;97579;-54
2023/02/05 04:09:39;;;;;;;6.70;4.23;;;10.20;99.90;;;10.31;67.12;103118.53;6023260;23;98835;-59
2023/02/05 04:12:05;;;;;;;11.10;3.50;;;10.10;99.90;;;10.32;66.92;103115.88;6017709;23;121609;-58
2023/02/05 04:14:31;;;;;;;16.83;5.27;;;10.20;99.90;;;10.28;66.72;103111.47;6023220;23;98383;-59
2023/02/05 04:16:56;;;;;;;8.83;4.47;;;10.20;99.90;;;10.27;66.80;103117.63;6015589;23;114836;-59
2023/02/05 04:19:22;;;;;;;14.90;5.20;;;10.20;99.90;;;10.26;67.00;103115.84;6022914;23;97499;-57
2023/02/05 04:21:48;;;;;;;7.73;3.83;;;10.10;99.90;;;10.25;67.26;103118.47;6022586;23;117480;-56
2023/02/05 04:24:14;;;;;;;7.63;4.20;;;10.10;99.90;;;10.26;67.61;103115.84;6021079;23;97573;-49
2023/02/05 04:26:39;;;;;;;11.07;5.03;;;10.10;99.90;;;10.23;67.03;103118.47;6022224;23;97083;-60
2023/02/05 04:29:05;;;;;;;12.20;4.90;;;10.10;99.90;;;10.26;66.78;103121.13;6018144;23;107403;-59
2023/02/05 04:31:31;;;;;;;7.73;4.33;;;10.20;99.90;;;10.25;66.57;103124.63;6022434;23;112556;-57
2023/02/05 04:33:57;;;;;;;11.97;4.43;;;10.10;99.90;;;10.24;66.58;103128.16;5993200;23;97482;-59
2023/02/05 04:36:23;;;;;;;10.37;4.47;;;10.10;99.90;;;10.26;66.51;103121.13;6023014;23;97385;-55
2023/02/05 04:38:49;;;;;;;10.37;4.80;;;10.10;99.90;;;10.25;66.86;103124.63;6023095;23;97764;-57
2023/02/05 04:41:14;;;;;;;10.63;3.90;;;10.10;99.90;;;10.25;67.08;103119.38;6018537;23;113994;-57
2023/02/05 04:43:40;;;;;;;11.70;4.67;;;10.20;99.90;;;10.26;66.61;103123.75;6022177;23;114495;-58
2023/02/05 04:46:08;;;;;;;7.50;4.50;;;10.20;99.90;;;10.27;66.88;103122.91;6016562;23;108103;-59
2023/02/05 04:48:35;;;;;;;8.07;4.27;;;10.20;99.90;;;10.31;66.66;103122.03;6023583;23;97284;-55
2023/02/05 04:51:09;;;;;;;12.30;4.20;;;10.20;99.90;;;10.31;66.71;103122.03;6020135;23;97617;-51
2023/02/05 04:53:35;;;;;;;11.67;4.30;;;10.20;99.90;;;10.32;66.22;103129.09;6021624;23;97500;-56
2023/02/05 04:56:06;;;;;;;7.10;3.43;;;10.20;99.90;;;10.31;66.61;103127.31;6016283;23;117932;-49
2023/02/05 04:58:32;;;;;;;10.27;4.90;;;10.20;99.90;;;10.34;66.42;103145.81;6021176;23;97456;-50
2023/02/05 05:00:57;;;;;;;12.10;3.90;;;10.20;99.90;;;10.34;66.92;103145.81;6016127;23;128031;-55
2023/02/05 05:03:23;;;;;;;4.80;3.13;;;10.20;99.90;;;10.09;67.59;103143.88;6023384;23;108319;-58
2023/02/05 05:05:49;;;;;;;14.63;5.03;;;10.20;99.90;;;10.25;67.51;103134.31;6022040;23;107355;-56
2023/02/05 05:08:15;;;;;;;5.83;3.13;;;10.20;99.90;;;10.35;67.99;103126.44;6015567;23;112334;-53
2023/02/05 05:10:41;;;;;;;10.13;3.63;;;10.40;99.90;;;10.45;66.62;103121.22;6024019;23;98139;-57
2023/02/05 05:13:07;;;;;;;15.27;4.23;;;10.30;99.90;;;10.47;67.17;103119.47;6015980;23;110945;-56
2023/02/05 05:15:32;;;;;;;6.90;3.90;;;10.40;99.90;;;10.48;67.66;103122.09;6022764;23;111789;-54
2023/02/05 05:17:58;;;;;;;10.87;3.57;;;10.40;99.90;;;10.50;67.78;103124.75;6016371;23;108369;-58
2023/02/05 05:20:24;;;;;;;9.10;3.13;;;10.40;99.90;;;10.49;67.95;103120.34;6023272;23;97379;-57
2023/02/05 05:22:49;;;;;;;8.70;3.73;;;10.40;99.90;;;10.51;67.65;103115.97;6021679;23;97176;-56
2023/02/05 05:25:15;;;;;;;4.93;2.93;;;10.40;99.90;;;10.50;68.37;103124.75;6018685;23;100603;-53
2023/02/05 05:27:41;;;;;;;10.70;4.00;;;10.40;99.90;;;10.56;67.92;103119.47;6019210;23;97762;-55
2023/02/05 05:30:08;;;;;;;14.30;3.60;;;10.40;99.90;;;10.56;67.98;103119.47;6018128;23;120031;-53
2023/02/05 05:32:33;;;;;;;9.70;3.00;;;10.40;99.90;;;10.60;67.91;103113.34;6021977;23;97643;-58
2023/02/05 05:34:59;;;;;;;9.33;3.53;;;10.50;99.90;;;10.60;67.97;103098.41;5978708;23;106703;-58
2023/02/05 05:37:25;;;;;;;6.53;2.77;;;10.50;99.90;;;10.59;68.24;103098.41;6026976;23;97504;-58
2023/02/05 05:45:21;;;;;;;10.47;3.87;;;10.40;99.90;;;10.53;68.54;103106.28;6021862;23;97424;-52
2023/02/05 05:47:47;;;;;;;4.70;2.33;;;10.40;99.90;;;10.52;68.51;103113.31;6027658;23;97426;-50
2023/02/05 05:50:13;;;;;;;9.27;2.90;;;10.40;99.90;;;10.53;68.18;103106.28;6025054;23;97242;-57
2023/02/05 05:52:39;;;;;;;7.67;3.10;;;10.40;99.90;;;10.52;68.47;103096.59;6027805;23;98765;-54
2023/02/05 05:55:05;;;;;;;4.03;2.57;;;10.40;99.90;;;10.54;68.38;103101.00;6026302;23;109148;-58
2023/02/05 05:57:31;;;;;;;5.57;2.80;;;10.40;99.90;;;10.54;68.40;103092.19;6029498;23;97485;-55
2023/02/05 05:59:56;;;;;;;11.50;4.10;;;10.40;99.90;;;10.55;68.85;103093.97;6028781;23;121395;-57
2023/02/05 06:02:22;;;;;;;7.40;3.37;;;10.40;99.90;;;10.52;68.43;103096.59;6024273;23;97435;-58
2023/02/05 06:04:48;;;;;;;5.80;2.87;;;10.40;99.90;;;10.49;68.85;103096.59;6027929;23;97536;-57
2023/02/05 06:07:14;;;;;;;10.80;3.83;;;10.40;99.90;;;10.51;69.07;103100.13;6022514;23;97298;-55
2023/02/05 06:09:40;;;;;;;9.27;3.33;;;10.40;99.90;;;10.67;67.60;103104.56;6025825;23;97644;-51
2023/02/05 06:12:06;;;;;;;9.47;4.23;;;10.40;99.90;;;10.61;68.55;103102.81;6020358;23;118458;-59
2023/02/05 06:14:32;;;;;;;6.53;2.77;;;10.50;99.90;;;10.60;68.51;103108.97;6027675;23;96661;-55
2023/02/05 06:16:57;;;;;;;7.23;2.87;;;10.50;99.90;;;10.60;67.85;103105.44;6023968;23;97184;-55
2023/02/05 06:19:23;;;;;;;10.90;4.87;;;10.50;99.90;;;10.67;67.94;103107.19;6024077;23;98743;-53
2023/02/05 06:21:49;;;;;;;7.83;3.20;;;10.50;99.90;;;10.68;67.89;103108.97;6025033;23;126911;-57
2023/02/05 06:24:14;;;;;;;10.57;3.43;;;10.60;99.90;;;10.67;67.99;103108.09;6020669;23;102713;-51
2023/02/05 06:26:40;;;;;;;8.13;3.93;;;10.60;99.90;;;10.69;67.98;103105.44;6027429;23;111228;-50
2023/02/05 06:29:06;;;;;;;9.73;4.90;;;10.60;99.90;;;10.69;68.13;103100.16;6019157;23;120273;-55
2023/02/05 06:31:32;;;;;;;10.10;5.40;;;10.60;99.90;;;10.76;67.75;103099.31;6024998;23;97127;-58
2023/02/05 06:34:00;;;;;;;13.00;4.93;;;10.70;99.90;;;10.85;67.26;103102.00;6026322;23;97184;-57
2023/02/05 06:36:25;;;;;;;13.77;6.00;;;10.70;99.90;;;10.89;67.25;103098.47;6022902;23;97236;-57
2023/02/05 06:38:51;;;;;;;13.47;4.87;;;10.70;99.90;;;10.89;67.39;103093.19;6026512;23;103669;-60
2023/02/05 06:41:17;;;;;;;11.83;4.60;;;10.80;99.90;;;10.88;67.43;103095.81;6019741;23;125667;-58
2023/02/05 06:43:43;;;;;;;12.33;4.37;;;10.80;99.90;;;10.96;66.83;103089.66;6024095;23;111372;-60
2023/02/05 06:46:08;;;;;;;11.87;4.90;;;10.80;99.90;;;10.99;65.68;103089.69;6021160;23;106367;-59
2023/02/05 06:48:34;;;;;;;13.77;4.73;;;10.80;99.90;;;11.06;66.31;103094.97;6023153;23;121786;-60
2023/02/05 06:51:00;;;;;;;14.67;5.50;;;10.90;99.90;;;11.08;66.22;103087.91;5993895;23;121904;-60
2023/02/05 06:53:25;;;;;;;11.63;5.43;;;11.00;99.90;;;11.26;65.51;103093.19;6023640;23;109038;-54
2023/02/05 06:55:51;;;;;;;14.33;5.43;;;11.20;99.90;;;11.32;64.66;103083.53;5998866;23;104303;-53
2023/02/05 06:58:17;;;;;;;13.37;4.80;;;11.20;99.90;;;11.39;63.83;103089.69;6019445;23;99597;-53
2023/02/05 07:00:43;;;;;;;12.27;5.20;;;11.20;99.90;;;11.52;63.26;103086.16;6022743;23;121129;-58
2023/02/05 07:03:09;;;;;;;11.33;4.50;;;11.30;99.90;;;11.46;64.40;103091.44;6018911;23;103650;-53
2023/02/05 07:05:34;;;;;;;10.10;4.87;;;11.30;99.90;;;11.40;64.70;103083.50;6023619;23;107143;-56
2023/02/05 07:08:02;;;;;;;14.13;6.37;;;11.30;99.90;;;11.30;65.04;103090.56;6020837;23;105787;-60
2023/02/05 07:10:28;;;;;;;12.60;5.07;;;11.20;99.90;;;11.26;65.67;103082.63;6023663;23;100725;-56
2023/02/05 07:12:54;;;;;;;12.23;4.33;;;11.20;99.90;;;11.24;65.37;103079.09;6026374;23;97294;-57
2023/02/05 07:15:19;;;;;;;10.83;4.23;;;11.20;99.90;;;11.07;65.78;103080.88;6020361;23;108306;-57
2023/02/05 07:17:45;;;;;;;10.87;4.03;;;11.10;99.90;;;10.93;66.07;103080.84;6024580;23;108410;-58
2023/02/05 07:20:11;;;;;;;7.13;3.40;;;11.00;99.90;;;10.95;66.06;103077.34;6018820;23;114150;-57
2023/02/05 07:22:37;;;;;;;9.33;3.43;;;11.00;99.90;;;11.07;65.15;103076.47;6026570;23;96983;-58
2023/02/05 07:25:03;;;;;;;9.23;3.80;;;11.10;99.90;;;10.92;65.50;103077.34;6022133;23;97387;-56
2023/02/05 07:27:29;;;;;;;6.83;3.67;;;11.00;99.90;;;10.89;65.74;103077.34;6023651;23;97362;-59
2023/02/05 07:29:55;;;;;;;9.17;3.77;;;11.00;99.90;;;10.94;65.78;103075.56;6024007;23;121434;-53
2023/02/05 07:32:21;;;;;;;9.27;4.23;;;10.90;99.90;;;10.83;66.57;103069.38;6024322;23;97641;-60
2023/02/05 07:34:47;;;;;;;10.33;4.93;;;10.90;99.90;;;10.82;66.22;103070.28;6025361;23;98783;-60
2023/02/05 07:37:13;;;;;;;8.33;3.70;;;10.90;99.90;;;10.96;65.04;103071.16;6024561;23;98539;-57
2023/02/05 07:39:39;;;;;;;12.23;4.60;;;11.10;99.90;;;11.00;65.07;103070.31;6029371;23;98312;-54
2023/02/05 07:42:04;;;;;;;7.93;3.50;;;11.00;99.90;;;11.24;63.75;103071.19;5998914;23;97151;-54
2023/02/05 07:44:30;;;;;;;10.43;4.83;;;11.20;99.90;;;11.11;65.20;103064.13;6028563;23;97396;-57
2023/02/05 07:46:56;;;;;;;11.33;4.63;;;11.20;99.90;;;11.31;63.39;103059.75;6026802;23;115744;-58
2023/02/05 07:49:22;;;;;;;13.37;5.53;;;11.30;99.90;;;11.42;63.38;103062.34;6020465;23;106775;-55
2023/02/05 07:51:48;;;;;;;8.97;3.80;;;11.40;99.90;;;11.47;63.12;103072.06;6032027;23;97159;-54
2023/02/05 07:54:14;;;;;;;12.23;4.20;;;11.50;99.90;;;11.63;62.15;103067.63;6021844;23;97037;-58
2023/02/05 07:56:40;;;;;;;7.70;2.97;;;11.70;99.90;;;11.70;62.55;103063.19;6025586;23;97406;-59
2023/02/05 07:59:06;;;;;;;7.17;3.03;;;11.90;99.90;;;11.59;62.65;103071.16;6022880;23;97079;-59
2023/02/05 08:01:33;;;;;;;8.63;3.67;;;11.80;99.90;;;11.45;63.28;103065.91;6028839;23;97244;-59
2023/02/05 08:03:59;;;;;;;9.87;4.37;;;11.70;99.90;;;11.16;64.73;103075.59;6031148;23;97261;-51
2023/02/05 08:06:25;;;;;;;6.50;3.10;;;11.40;99.90;;;10.98;65.54;103072.03;6024708;23;100379;-59
2023/02/05 08:08:51;;;;;;;5.77;3.07;;;11.20;99.90;;;10.72;66.34;103069.41;6027779;23;97629;-58
2023/02/05 08:11:18;;;;;;;10.77;3.23;;;10.90;99.90;;;10.47;67.09;103066.69;5999623;23;97171;-58
2023/02/05 08:13:45;;;;;;;7.43;3.90;;;10.70;99.90;;;10.37;67.60;103065.75;6000246;23;97563;-57
2023/02/05 08:16:14;;;;;;;4.77;2.93;;;10.60;99.90;;;10.12;68.34;103064.75;6023289;23;97923;-60
2023/02/05 08:18:40;;;;;;;7.83;3.73;;;10.50;99.90;;;9.97;69.15;103060.28;6029391;23;97689;-53
2023/02/05 08:21:06;;;;;;;5.27;3.40;;;10.30;99.90;;;9.95;69.37;103061.16;6026163;23;106830;-56
2023/02/05 08:23:32;;;;;;;4.70;2.43;;;10.20;99.90;;;9.72;69.72;103066.31;6030944;23;97141;-59
2023/02/05 08:25:58;;;;;;;7.60;3.87;;;10.10;99.90;;;9.83;69.81;103061.97;6024613;23;113408;-51
2023/02/05 08:28:26;;;;;;;7.57;3.60;;;10.10;99.90;;;9.78;69.90;103054.03;5994760;23;112055;-55
2023/02/05 08:30:52;;;;;;;10.40;3.83;;;10.10;99.90;;;9.94;69.60;103064.66;6027964;23;97515;-57
2023/02/05 08:33:18;;;;;;;8.47;4.10;;;10.10;99.90;;;9.93;69.72;103068.19;6021343;23;97523;-56
2023/02/05 08:35:44;;;;;;;6.80;3.93;;;10.20;99.90;;;9.80;70.06;103073.38;6026045;23;97911;-57
2023/02/05 08:38:10;;;;;;;8.30;3.93;;;10.10;99.90;;;9.75;70.60;103053.16;6023230;23;99192;-59
2023/02/05 08:40:36;;;;;;;6.60;3.57;;;10.10;99.90;;;9.53;71.01;103062.66;6028171;23;98061;-59
2023/02/05 08:43:02;;;;;;;5.77;3.40;;;9.90;99.90;;;9.62;70.83;103061.84;6023515;23;97493;-59
2023/02/05 08:45:28;;;;;;;9.93;3.80;;;9.90;99.90;;;9.42;71.18;103053.81;6025211;23;98132;-59
2023/02/05 08:47:54;;;;;;;6.60;3.27;;;9.90;99.90;;;9.31;71.62;103055.50;6026740;23;97740;-56
2023/02/05 08:50:21;;;;;;;7.70;3.33;;;9.80;99.90;;;9.14;72.56;103048.34;6022829;23;98193;-58
2023/02/05 08:52:48;;;;;;;6.03;2.27;;;9.70;99.90;;;9.30;72.21;103045.84;6027159;23;97297;-58
2023/02/05 08:55:14;;;;;;;6.70;3.30;;;9.70;99.90;;;9.39;72.14;103059.06;6015654;23;97582;-57
2023/02/05 08:57:40;;;;;;;5.20;2.73;;;9.70;99.90;;;9.41;72.01;103049.44;6024771;23;97275;-57
2023/02/05 09:00:08;;;;;;;7.20;2.83;;;9.80;99.90;;;9.54;71.48;103044.22;6023174;23;97276;-56
2023/02/05 09:02:34;;;;;;;6.30;2.63;;;9.80;99.90;;;9.45;71.16;103038.03;6026503;23;97308;-56
2023/02/05 09:05:00;;;;;;;4.80;2.57;;;9.80;99.90;;;9.39;71.60;103053.78;6027058;23;97762;-57
2023/02/05 09:07:25;;;;;;;3.87;2.63;;;9.80;99.90;;;9.23;71.83;103053.66;6019586;23;102456;-57
2023/02/05 09:09:51;;;;;;;5.60;2.87;;;9.70;99.90;;;9.07;71.88;103056.16;6026360;23;97866;-58
2023/02/05 09:12:17;;;;;;;3.37;2.13;;;9.50;99.90;;;9.31;69.11;103066.03;6019251;23;102723;-55
2023/02/05 09:14:43;;;;;;;2.97;2.37;;;9.70;99.90;;;9.48;68.88;103067.91;6026112;23;122356;-57
2023/02/05 09:17:09;;;;;;;1.33;1.20;;;9.80;99.90;;;9.48;68.29;103061.75;6020721;23;114951;-55
2023/02/05 09:19:39;;;;;;;2.00;1.40;;;9.80;99.90;;;9.70;68.36;103066.31;6020808;23;105625;-56
2023/02/05 09:22:06;;;;;;;2.00;1.57;;;9.90;99.90;;;9.79;66.16;103070.75;6014057;23;98014;-56
2023/02/05 09:24:33;;;;;;;1.73;1.47;;;10.00;99.90;;;9.74;67.30;103076.00;6000060;23;98635;-52
2023/02/05 09:26:59;;;;;;;1.07;0.93;;;9.90;99.90;;;10.15;66.65;103080.63;6003760;23;97744;-59
2023/02/05 09:29:25;;;;;;;1.77;1.37;;;10.20;99.90;;;10.19;64.89;103090.28;5993627;23;98634;-58
2023/02/05 09:31:51;;;;;;;1.60;0.97;;;10.30;99.90;;;10.36;64.50;103090.38;6008154;23;97072;-56
2023/02/05 09:34:17;;;;;;;2.40;0.77;;;10.50;99.90;;;10.24;64.14;103096.50;6003043;23;115269;-60
2023/02/05 09:36:42;;;;;;;0.77;0.67;;;10.50;99.90;;;10.23;63.75;103100.00;6010949;23;116399;-52
2023/02/05 09:39:10;;;;;;;1.23;0.90;;;10.40;99.90;;;10.45;65.00;103102.75;6005379;23;96758;-59
2023/02/05 09:41:45;;;;;;;0.87;0.70;;;10.50;99.90;;;10.27;64.36;103100.91;6004162;23;97566;-59
2023/02/05 09:45:06;;;;;;;1.33;0.60;;;10.40;99.90;;;10.55;61.84;103107.16;6010242;23;98469;-59
2023/02/05 09:48:02;;;;;;;1.20;0.90;;;10.60;99.90;;;10.51;63.61;103115.97;5955549;23;101018;-49
2023/02/05 09:50:29;;;;;;;1.80;0.90;;;10.70;99.90;;;10.42;63.94;103107.16;6003151;23;97114;-58
2023/02/05 09:53:05;;;;;;;0.40;0.37;;;10.50;99.90;;;10.50;62.76;103103.63;6011448;23;98364;-60
2023/02/05 09:55:43;;;;;;;1.20;0.63;;;10.60;99.90;;;10.29;63.61;103109.72;6006295;23;98645;-60
2023/02/05 09:58:23;;;;;;;0.60;0.60;;;10.40;99.90;;;10.46;63.61;103115.06;6009907;23;96926;-57
2023/02/05 10:01:05;;;;;;;0.83;0.43;;;10.50;99.90;;;10.45;63.46;103118.59;5979427;23;98260;-59
2023/02/05 10:03:44;;;;;;;5.17;0.63;;;10.50;99.90;;;10.34;63.46;103114.13;5981599;23;97381;-58
2023/02/05 10:06:12;;;;;;;6.40;0.80;;;10.50;99.90;;;10.31;63.68;103124.69;6007222;23;97363;-54
2023/02/05 10:08:56;;;;;;;1.27;0.70;;;10.40;99.90;;;10.40;64.67;103124.69;6005543;23;97785;-56
2023/02/05 10:11:59;;;;;;;0.80;0.67;;;10.40;99.90;;;10.26;64.31;103126.41;6000419;23;97669;-60
2023/02/05 10:14:58;;;;;;;0.77;0.63;;;10.30;99.90;;;10.30;63.17;103122.91;6004571;23;98410;-52
2023/02/05 10:18:02;;;;;;;1.10;0.40;;;10.50;99.90;;;10.35;63.14;103120.28;6004135;23;98085;-50
2023/02/05 10:20:55;;;;;;;1.97;1.17;;;10.50;99.90;;;10.18;63.01;103121.94;6004574;23;98452;-61
2023/02/05 10:23:58;;;;;;;1.97;1.10;;;10.40;99.90;;;10.33;62.86;103127.31;6009247;23;98720;-56
2023/02/05 10:26:43;;;;;;;0.83;0.70;;;10.50;99.90;;;10.31;62.92;103119.41;5976937;23;96998;-57